createdAt,value
2019-05-14T00:00:17.268Z,45.90
2019-05-14T00:02:47.229Z,45.13
2019-05-14T00:05:17.074Z,44.43
2019-05-14T00:07:46.729Z,43.47
2019-05-14T00:10:16.536Z,43.90
2019-05-14T00:12:46.335Z,44.10
2019-05-14T00:15:16.089Z,43.40
2019-05-14T00:17:46.576Z,42.53
2019-05-14T00:20:17.255Z,42.67
2019-05-14T00:22:46.930Z,42.73
2019-05-14T00:25:16.646Z,42.17
2019-05-14T00:27:46.337Z,42.37
2019-05-14T00:30:17.115Z,41.40
2019-05-14T00:32:46.894Z,41.07
2019-05-14T00:35:16.643Z,40.90
2019-05-14T00:37:47.477Z,41.57
2019-05-14T00:40:22.037Z,42.33
2019-05-14T00:42:53.250Z,42.73
2019-05-14T00:45:23.300Z,42.57
2019-05-14T00:47:52.985Z,41.23
2019-05-14T00:50:22.677Z,41.50
2019-05-14T00:52:52.371Z,41.27
2019-05-14T00:55:22.413Z,41.70
2019-05-14T00:57:52.447Z,42.43
2019-05-14T01:00:22.209Z,41.53
2019-05-14T01:02:53.508Z,41.77
2019-05-14T01:05:23.218Z,42.33
2019-05-14T01:07:52.934Z,42.30
2019-05-14T01:10:24.052Z,41.53
2019-05-14T01:12:53.725Z,41.03
2019-05-14T01:15:23.403Z,41.37
2019-05-14T01:17:54.554Z,41.63
2019-05-14T01:20:24.827Z,41.70
2019-05-14T01:22:54.511Z,42.53
2019-05-14T01:25:26.142Z,42.53
2019-05-14T01:27:55.828Z,41.33
2019-05-14T01:30:25.579Z,42.27
2019-05-14T01:32:55.279Z,41.73
2019-05-14T01:35:25.561Z,41.47
2019-05-14T01:37:55.903Z,41.57
2019-05-14T01:40:25.578Z,41.40
2019-05-14T01:42:55.248Z,41.40
2019-05-14T01:45:28.187Z,41.80
2019-05-14T01:47:56.330Z,41.50
2019-05-14T01:50:26.030Z,41.77
2019-05-14T01:52:55.664Z,42.03
2019-05-14T01:55:25.366Z,41.93
2019-05-14T01:57:55.058Z,41.27
2019-05-14T02:00:25.340Z,40.40
2019-05-14T02:02:54.984Z,41.33
2019-05-14T02:05:24.817Z,42.13
2019-05-14T02:07:54.476Z,43.17
2019-05-14T02:10:24.638Z,42.20
2019-05-14T02:12:54.342Z,42.50
2019-05-14T02:15:36.320Z,41.30
2019-05-14T02:17:55.395Z,40.87
2019-05-14T02:20:25.792Z,41.10
2019-05-14T02:22:55.439Z,41.80
2019-05-14T02:25:27.630Z,41.20
2019-05-14T02:27:58.609Z,41.17
2019-05-14T02:30:40.813Z,40.93
2019-05-14T02:32:59.764Z,42.20
2019-05-14T02:35:30.070Z,42.07
2019-05-14T02:37:59.917Z,41.37
2019-05-14T02:40:29.859Z,41.03
2019-05-14T02:42:59.644Z,41.63
2019-05-14T02:45:30.295Z,40.27
2019-05-14T02:48:00.702Z,40.40
2019-05-14T02:50:30.416Z,40.87
2019-05-14T02:53:00.179Z,40.20
2019-05-14T02:55:30.143Z,40.90
2019-05-14T02:58:10.038Z,39.40
2019-05-14T03:00:40.833Z,41.07
2019-05-14T03:03:12.368Z,41.43
2019-05-14T03:05:41.953Z,41.50
2019-05-14T03:08:11.640Z,41.40
2019-05-14T03:10:41.307Z,40.97
2019-05-14T03:13:11.277Z,41.37
2019-05-14T03:15:41.354Z,41.33
2019-05-14T03:18:11.030Z,41.33
2019-05-14T03:20:40.681Z,41.80
2019-05-14T03:23:17.809Z,41.53
2019-05-14T03:25:41.904Z,41.60
2019-05-14T03:28:19.602Z,41.70
2019-05-14T03:30:51.976Z,43.00
2019-05-14T03:33:22.477Z,42.87
2019-05-14T03:36:01.309Z,42.40
2019-05-14T03:38:29.340Z,43.10
2019-05-14T03:41:00.265Z,43.10
2019-05-14T03:43:30.586Z,42.47
2019-05-14T03:46:00.674Z,42.03
2019-05-14T03:48:30.335Z,41.43
2019-05-14T03:51:00.676Z,41.53
2019-05-14T03:53:31.070Z,43.07
2019-05-14T03:56:01.547Z,42.20
2019-05-14T03:58:31.831Z,41.10
2019-05-14T04:01:03.258Z,41.00
2019-05-14T04:03:34.770Z,40.77
2019-05-14T04:06:04.873Z,41.50
2019-05-14T04:08:39.263Z,42.67
2019-05-14T04:11:09.801Z,42.90
2019-05-14T04:13:41.599Z,42.37
2019-05-14T04:16:15.075Z,42.57
2019-05-14T04:18:50.387Z,41.83
2019-05-14T04:21:22.747Z,41.67
2019-05-14T04:23:53.879Z,41.17
2019-05-14T04:26:26.362Z,42.00
2019-05-14T04:29:01.241Z,42.80
2019-05-14T04:31:32.789Z,43.43
2019-05-14T04:34:04.305Z,44.50
2019-05-14T04:36:34.153Z,45.80
2019-05-14T04:39:05.206Z,45.37
2019-05-14T04:41:35.180Z,45.37
2019-05-14T04:44:05.026Z,45.97
2019-05-14T04:46:34.703Z,45.23
2019-05-14T04:49:04.387Z,46.43
2019-05-14T04:51:34.247Z,44.33
2019-05-14T04:54:04.324Z,45.10
2019-05-14T04:56:33.990Z,43.53
2019-05-14T04:59:03.863Z,43.57
2019-05-14T05:01:33.823Z,44.47
2019-05-14T05:04:05.869Z,44.90
2019-05-14T05:06:35.558Z,43.43
2019-05-14T05:09:09.309Z,43.37
2019-05-14T05:11:39.803Z,43.97
2019-05-14T05:14:09.584Z,44.33
2019-05-14T05:16:39.460Z,43.33
2019-05-14T05:19:10.440Z,42.77
2019-05-14T05:21:40.574Z,40.60
2019-05-14T05:24:10.262Z,40.27
2019-05-14T05:26:39.946Z,40.50
2019-05-14T05:29:10.512Z,40.33
2019-05-14T05:31:41.774Z,41.40
2019-05-14T05:34:11.451Z,40.63
2019-05-14T05:36:41.187Z,39.87
2019-05-14T05:39:10.876Z,39.43
2019-05-14T05:41:42.011Z,40.47
2019-05-14T05:44:11.661Z,39.20
2019-05-14T05:46:43.221Z,41.03
2019-05-14T05:49:12.754Z,39.17
2019-05-14T05:51:43.767Z,40.47
2019-05-14T05:54:13.450Z,40.97
2019-05-14T05:56:43.116Z,40.73
2019-05-14T05:59:12.876Z,39.63
2019-05-14T06:01:46.531Z,40.87
2019-05-14T06:04:14.331Z,40.93
2019-05-14T06:06:44.691Z,40.00
2019-05-14T06:09:14.437Z,40.87
2019-05-14T06:11:44.486Z,39.57
2019-05-14T06:14:14.195Z,39.27
2019-05-14T06:16:44.775Z,40.90
2019-05-14T06:19:14.449Z,39.07
2019-05-14T06:21:45.272Z,38.97
2019-05-14T06:24:15.016Z,40.43
2019-05-14T06:26:44.712Z,40.70
2019-05-14T06:29:14.718Z,39.67
2019-05-14T06:31:44.413Z,38.50
2019-05-14T06:34:15.732Z,38.97
2019-05-14T06:36:49.263Z,40.50
2019-05-14T06:39:18.948Z,40.40
2019-05-14T06:41:49.164Z,39.97
2019-05-14T06:44:18.938Z,39.93
2019-05-14T06:46:52.696Z,40.07
2019-05-14T06:49:21.936Z,39.93
2019-05-14T06:51:51.538Z,40.33
2019-05-14T06:54:21.426Z,39.87
2019-05-14T06:56:51.172Z,39.57
2019-05-14T06:59:20.825Z,39.97
2019-05-14T07:01:51.622Z,40.80
2019-05-14T07:04:22.653Z,39.97
2019-05-14T07:06:52.354Z,41.03
2019-05-14T07:09:22.191Z,40.90
2019-05-14T07:11:52.010Z,39.80
2019-05-14T07:14:21.738Z,38.90
2019-05-14T07:16:51.424Z,41.40
2019-05-14T07:19:21.114Z,39.57
2019-05-14T07:21:50.784Z,41.70
2019-05-14T07:24:20.708Z,40.17
2019-05-14T07:26:50.389Z,39.53
2019-05-14T07:29:20.086Z,40.07
2019-05-14T07:31:49.708Z,40.77
2019-05-14T07:34:19.551Z,40.10
2019-05-14T07:36:50.806Z,41.67
2019-05-14T07:39:20.870Z,41.37
2019-05-14T07:41:50.529Z,40.50
2019-05-14T07:44:22.630Z,40.20
2019-05-14T07:46:52.246Z,40.70
2019-05-14T07:49:24.523Z,40.90
2019-05-14T07:51:54.204Z,40.80
2019-05-14T07:54:28.396Z,39.97
2019-05-14T07:56:59.562Z,39.57
2019-05-14T07:59:29.255Z,39.93
2019-05-14T08:01:58.936Z,40.37
2019-05-14T08:04:29.138Z,40.10
2019-05-14T08:06:59.309Z,40.07
2019-05-14T08:09:28.997Z,41.03
2019-05-14T08:11:58.922Z,40.30
2019-05-14T08:14:30.179Z,40.40
2019-05-14T08:17:00.302Z,40.10
2019-05-14T08:19:31.521Z,40.77
2019-05-14T08:22:01.393Z,40.13
2019-05-14T08:24:33.150Z,40.60
2019-05-14T08:27:02.811Z,40.03
2019-05-14T08:29:32.472Z,40.10
2019-05-14T08:32:02.181Z,40.93
2019-05-14T08:34:32.380Z,40.20
2019-05-14T08:37:03.826Z,40.23
2019-05-14T08:39:33.710Z,40.47
2019-05-14T08:42:04.389Z,41.60
2019-05-14T08:44:34.656Z,41.03
2019-05-14T08:47:05.446Z,41.60
2019-05-14T08:49:42.482Z,40.90
2019-05-14T08:52:08.785Z,41.60
2019-05-14T08:54:39.215Z,41.83
2019-05-14T08:57:10.518Z,41.07
2019-05-14T09:00:03.001Z,41.67
2019-05-14T09:02:32.649Z,40.53
2019-05-14T09:05:04.472Z,41.53
2019-05-14T09:07:33.679Z,41.17
2019-05-14T09:10:03.947Z,42.13
2019-05-14T09:12:33.616Z,41.27
2019-05-14T09:15:03.526Z,41.07
2019-05-14T09:17:34.065Z,40.27
2019-05-14T09:20:07.170Z,40.70
2019-05-14T09:22:39.561Z,41.83
2019-05-14T09:25:09.097Z,41.63
2019-05-14T09:27:39.048Z,41.63
2019-05-14T09:30:10.723Z,41.00
2019-05-14T09:32:40.323Z,41.17
2019-05-14T09:35:10.563Z,41.47
2019-05-14T09:37:40.163Z,41.67
2019-05-14T09:40:10.534Z,41.40
2019-05-14T09:42:40.141Z,40.93
2019-05-14T09:45:11.637Z,41.10
2019-05-14T09:47:42.259Z,41.67
2019-05-14T09:50:22.038Z,41.77
2019-05-14T09:52:44.263Z,41.20
2019-05-14T09:55:15.479Z,41.07
2019-05-14T09:57:45.165Z,41.17
2019-05-14T10:00:18.626Z,40.77
2019-05-14T10:02:49.468Z,41.23
2019-05-14T10:05:19.647Z,44.00
2019-05-14T10:07:49.649Z,43.33
2019-05-14T10:10:19.827Z,43.97
2019-05-14T10:12:56.386Z,44.43
2019-05-14T10:15:21.587Z,44.43
2019-05-14T10:17:52.566Z,44.47
2019-05-14T10:20:36.427Z,44.43
2019-05-14T10:22:55.476Z,42.80
2019-05-14T10:25:25.172Z,44.97
2019-05-14T10:27:55.049Z,43.87
2019-05-14T10:30:25.598Z,43.77
2019-05-14T10:32:55.372Z,44.27
2019-05-14T10:35:25.064Z,43.97
2019-05-14T10:37:54.732Z,44.53
2019-05-14T10:40:24.483Z,44.60
2019-05-14T10:42:57.131Z,43.90
2019-05-14T10:45:28.886Z,45.03
2019-05-14T10:47:59.000Z,43.73
2019-05-14T10:50:29.033Z,45.80
2019-05-14T10:52:59.535Z,45.20
2019-05-14T10:55:29.665Z,45.07
2019-05-14T10:57:59.309Z,44.97
2019-05-14T11:00:30.598Z,45.03
2019-05-14T11:03:00.265Z,44.67
2019-05-14T11:05:29.959Z,45.23
2019-05-14T11:07:59.696Z,44.07
2019-05-14T11:10:31.105Z,43.47
2019-05-14T11:13:00.783Z,43.63
2019-05-14T11:15:31.255Z,43.00
2019-05-14T11:18:00.929Z,42.20
2019-05-14T11:20:31.280Z,42.20
2019-05-14T11:23:01.168Z,42.90
2019-05-14T11:25:30.838Z,43.07
2019-05-14T11:28:00.678Z,43.17
2019-05-14T11:30:30.571Z,42.03
2019-05-14T11:33:00.237Z,44.90
2019-05-14T11:35:29.944Z,46.37
2019-05-14T11:37:59.619Z,43.40
2019-05-14T11:40:29.544Z,42.10
2019-05-14T11:42:59.475Z,42.07
2019-05-14T11:45:29.502Z,43.70
2019-05-14T11:47:59.169Z,42.37
2019-05-14T11:50:30.108Z,42.33
2019-05-14T11:52:59.764Z,42.53
2019-05-14T11:55:29.434Z,42.60
2019-05-14T11:57:59.112Z,42.60
2019-05-14T12:00:29.650Z,42.30
2019-05-14T12:02:59.499Z,42.73
2019-05-14T12:05:30.409Z,42.53
2019-05-14T12:08:00.650Z,42.10
2019-05-14T12:10:30.401Z,42.40
2019-05-14T12:13:00.082Z,42.70
2019-05-14T12:15:29.772Z,43.07
2019-05-14T12:17:59.782Z,42.37
2019-05-14T12:20:29.877Z,41.87
2019-05-14T12:23:00.145Z,42.57
2019-05-14T12:25:29.794Z,43.10
2019-05-14T12:27:59.503Z,43.57
2019-05-14T12:30:29.184Z,42.00
2019-05-14T12:32:59.186Z,42.23
2019-05-14T12:35:29.472Z,43.33
2019-05-14T12:37:59.302Z,42.50
2019-05-14T12:40:29.139Z,42.90
2019-05-14T12:42:59.418Z,42.23
2019-05-14T12:45:30.050Z,42.70
2019-05-14T12:48:00.130Z,42.30
2019-05-14T12:50:29.813Z,42.97
2019-05-14T12:52:59.548Z,42.43
2019-05-14T12:55:29.944Z,42.10
2019-05-14T12:58:00.039Z,42.27
2019-05-14T13:00:29.732Z,42.10
2019-05-14T13:02:59.514Z,41.93
2019-05-14T13:05:29.529Z,42.43
2019-05-14T13:07:59.469Z,42.33
2019-05-14T13:10:29.802Z,42.73
2019-05-14T13:13:00.862Z,41.90
2019-05-14T13:15:30.565Z,42.40
2019-05-14T13:18:00.187Z,42.47
2019-05-14T13:20:29.875Z,42.40
2019-05-14T13:22:59.554Z,42.87
2019-05-14T13:25:30.335Z,43.43
2019-05-14T13:28:01.927Z,43.57
2019-05-14T13:30:33.198Z,44.73
2019-05-14T13:33:02.812Z,43.80
2019-05-14T13:35:32.484Z,42.77
2019-05-14T13:38:02.169Z,43.20
2019-05-14T13:40:31.941Z,42.23
2019-05-14T13:43:01.926Z,42.60
2019-05-14T13:45:31.598Z,42.00
2019-05-14T13:48:01.264Z,41.93
2019-05-14T13:50:30.930Z,43.10
2019-05-14T13:53:07.508Z,43.17
2019-05-14T13:55:32.296Z,43.33
2019-05-14T13:58:01.914Z,43.53
2019-05-14T14:00:31.695Z,43.20
2019-05-14T14:03:01.601Z,44.03
2019-05-14T14:05:31.368Z,44.17
2019-05-14T14:08:01.263Z,45.00
2019-05-14T14:10:36.223Z,44.10
2019-05-14T14:13:06.136Z,44.37
2019-05-14T14:15:33.600Z,45.10
2019-05-14T14:18:03.267Z,45.33
2019-05-14T14:20:32.879Z,45.73
2019-05-14T14:23:17.466Z,45.47
2019-05-14T14:25:33.856Z,46.07
2019-05-14T14:28:03.715Z,45.23
2019-05-14T14:30:33.366Z,45.52
2019-05-14T14:33:04.680Z,45.73
2019-05-14T14:35:38.782Z,46.08
2019-05-14T14:38:08.895Z,45.10
2019-05-14T14:40:40.023Z,45.43
2019-05-14T14:43:09.796Z,45.90
2019-05-14T14:45:46.081Z,45.67
2019-05-14T14:48:12.544Z,46.85
2019-05-14T14:50:44.045Z,46.80
2019-05-14T14:53:13.640Z,45.48
2019-05-14T14:55:43.319Z,46.42
2019-05-14T14:58:13.787Z,46.08
2019-05-14T15:00:43.464Z,47.23
2019-05-14T15:03:13.264Z,47.48
2019-05-14T15:05:42.974Z,46.95
2019-05-14T15:08:12.621Z,46.48
2019-05-14T15:10:42.354Z,47.08
2019-05-14T15:13:14.070Z,46.23
2019-05-14T15:15:43.744Z,46.85
2019-05-14T15:18:14.113Z,46.40
2019-05-14T15:20:44.063Z,47.45
2019-05-14T15:23:13.736Z,47.30
2019-05-14T15:25:48.432Z,46.48
2019-05-14T15:28:18.899Z,46.60
2019-05-14T15:30:50.423Z,46.80
2019-05-14T15:33:20.124Z,47.20
2019-05-14T15:35:49.820Z,46.75
2019-05-14T15:38:21.857Z,46.37
2019-05-14T15:40:51.670Z,46.23
2019-05-14T15:43:22.846Z,46.73
2019-05-14T15:45:52.583Z,46.90
2019-05-14T15:48:22.249Z,47.08
2019-05-14T15:50:51.848Z,47.35
2019-05-14T15:53:21.520Z,46.75
2019-05-14T15:55:52.614Z,46.48
2019-05-14T15:58:23.644Z,47.43
2019-05-14T16:00:53.312Z,47.17
2019-05-14T16:03:22.948Z,47.33
2019-05-14T16:05:52.715Z,46.30
2019-05-14T16:08:23.871Z,46.08
2019-05-14T16:10:53.463Z,46.90
2019-05-14T16:13:23.163Z,48.05
2019-05-14T16:15:56.098Z,47.05
2019-05-14T16:18:25.742Z,47.00
2019-05-14T16:20:55.435Z,46.95
2019-05-14T16:23:25.122Z,47.67
2019-05-14T16:25:54.834Z,47.00
2019-05-14T16:28:24.512Z,47.05
2019-05-14T16:30:54.173Z,46.85
2019-05-14T16:33:23.844Z,48.40
2019-05-14T16:35:53.561Z,47.67
2019-05-14T16:38:23.412Z,46.92
2019-05-14T16:40:54.553Z,46.83
2019-05-14T16:43:24.360Z,46.90
2019-05-14T16:45:55.757Z,47.58
2019-05-14T16:48:25.444Z,47.35
2019-05-14T16:50:55.112Z,46.68
2019-05-14T16:53:24.774Z,47.10
2019-05-14T16:55:54.513Z,47.60
2019-05-14T16:58:24.661Z,47.00
2019-05-14T17:00:54.314Z,46.40
2019-05-14T17:03:23.986Z,46.60
2019-05-14T17:05:53.665Z,46.33
2019-05-14T17:08:23.437Z,47.33
2019-05-14T17:10:53.110Z,47.78
2019-05-14T17:13:22.802Z,47.05
2019-05-14T17:15:52.462Z,46.65
2019-05-14T17:18:23.453Z,46.98
2019-05-14T17:20:53.155Z,47.23
2019-05-14T17:23:22.819Z,47.03
2019-05-14T17:25:54.579Z,47.67
2019-05-14T17:28:24.426Z,46.88
2019-05-14T17:30:54.084Z,47.33
2019-05-14T17:33:23.776Z,46.57
2019-05-14T17:35:53.443Z,46.37
2019-05-14T17:38:23.104Z,47.33
2019-05-14T17:40:52.737Z,46.23
2019-05-14T17:43:23.264Z,46.57
2019-05-14T17:45:53.186Z,46.50
2019-05-14T17:48:22.768Z,46.87
2019-05-14T17:50:52.448Z,47.07
2019-05-14T17:53:22.455Z,47.60
2019-05-14T17:55:52.156Z,46.70
2019-05-14T17:58:21.776Z,46.97
2019-05-14T18:00:52.383Z,46.97
2019-05-14T18:03:22.632Z,46.20
2019-05-14T18:05:52.342Z,46.00
2019-05-14T18:08:22.973Z,46.90
2019-05-14T18:10:52.621Z,46.60
2019-05-14T18:13:22.291Z,46.60
2019-05-14T18:15:53.276Z,46.00
2019-05-14T18:18:22.915Z,46.40
2019-05-14T18:20:52.671Z,46.60
2019-05-14T18:23:22.325Z,46.80
2019-05-14T18:26:03.375Z,46.20
2019-05-14T18:28:23.324Z,46.63
2019-05-14T18:30:52.995Z,46.17
2019-05-14T18:33:22.673Z,45.33
2019-05-14T18:35:52.360Z,46.43
2019-05-14T18:38:23.658Z,46.47
2019-05-14T18:40:53.341Z,45.93
2019-05-14T18:43:22.952Z,46.57
2019-05-14T18:45:52.612Z,45.97
2019-05-14T18:48:22.279Z,45.80
2019-05-14T18:50:51.972Z,45.47
2019-05-14T18:53:23.307Z,47.20
2019-05-14T18:55:52.984Z,46.27
2019-05-14T18:58:26.023Z,46.37
2019-05-14T19:00:58.451Z,45.70
2019-05-14T19:03:28.661Z,46.90
2019-05-14T19:05:58.846Z,45.40
2019-05-14T19:08:30.784Z,45.33
2019-05-14T19:11:03.668Z,45.53
2019-05-14T19:13:33.514Z,45.23
2019-05-14T19:16:03.257Z,45.10
2019-05-14T19:18:32.934Z,46.20
2019-05-14T19:21:02.555Z,45.50
2019-05-14T19:23:38.264Z,45.43
2019-05-14T19:26:09.539Z,44.67
2019-05-14T19:28:39.364Z,44.70
2019-05-14T19:31:09.265Z,44.70
2019-05-14T19:33:38.943Z,44.73
2019-05-14T19:36:09.006Z,44.20
2019-05-14T19:38:39.173Z,45.00
2019-05-14T19:41:09.121Z,45.03
2019-05-14T19:43:41.842Z,43.90
2019-05-14T19:46:11.579Z,44.23
2019-05-14T19:48:41.255Z,43.80
2019-05-14T19:51:11.020Z,43.40
2019-05-14T19:53:40.972Z,43.97
2019-05-14T19:56:17.929Z,43.90
2019-05-14T19:58:47.580Z,43.87
2019-05-14T20:01:19.373Z,43.63
2019-05-14T20:03:51.261Z,43.43
2019-05-14T20:06:20.979Z,43.57
2019-05-14T20:08:52.117Z,43.87
2019-05-14T20:11:25.839Z,44.10
2019-05-14T20:13:54.697Z,43.53
2019-05-14T20:16:31.620Z,46.80
2019-05-14T20:19:02.146Z,47.90
2019-05-14T20:21:31.813Z,50.80
2019-05-14T20:24:01.779Z,54.13
2019-05-14T20:26:31.434Z,54.50
2019-05-14T20:29:01.227Z,53.80
2019-05-14T20:31:32.357Z,51.83
2019-05-14T20:34:02.029Z,48.27
2019-05-14T20:36:31.730Z,46.27
2019-05-14T20:39:02.414Z,45.83
2019-05-14T20:41:34.552Z,43.77
2019-05-14T20:44:09.597Z,43.87
2019-05-14T20:46:39.261Z,43.07
2019-05-14T20:49:09.012Z,43.07
2019-05-14T20:51:39.191Z,43.27
2019-05-14T20:54:09.152Z,43.07
2019-05-14T20:56:40.343Z,43.90
2019-05-14T20:59:10.340Z,43.00
2019-05-14T21:01:39.998Z,42.90
2019-05-14T21:04:11.323Z,42.97
2019-05-14T21:06:41.088Z,42.25
2019-05-14T21:09:13.206Z,42.07
2019-05-14T21:11:49.295Z,43.13
2019-05-14T21:14:19.784Z,42.47
2019-05-14T21:16:49.374Z,45.03
2019-05-14T21:19:19.070Z,42.87
2019-05-14T21:21:49.274Z,41.97
2019-05-14T21:24:21.949Z,43.03
2019-05-14T21:26:50.538Z,42.27
2019-05-14T21:29:20.207Z,42.20
2019-05-14T21:31:53.205Z,42.53
2019-05-14T21:34:22.899Z,42.73
2019-05-14T21:36:52.572Z,42.60
2019-05-14T21:39:22.210Z,42.50
2019-05-14T21:41:51.834Z,42.40
2019-05-14T21:44:21.491Z,41.57
2019-05-14T21:46:53.252Z,42.40
2019-05-14T21:49:22.859Z,42.30
2019-05-14T21:51:52.631Z,42.00
2019-05-14T21:54:22.573Z,42.03
2019-05-14T21:56:52.444Z,42.37
2019-05-14T21:59:22.323Z,41.83
2019-05-14T22:01:52.354Z,42.47
2019-05-14T22:04:22.032Z,41.80
2019-05-14T22:06:51.691Z,41.77
2019-05-14T22:09:21.498Z,43.23
2019-05-14T22:11:51.189Z,42.20
2019-05-14T22:14:23.535Z,43.00
2019-05-14T22:16:53.203Z,42.80
2019-05-14T22:19:22.927Z,43.13
2019-05-14T22:21:52.612Z,42.47
2019-05-14T22:24:22.274Z,42.63
2019-05-14T22:26:51.972Z,42.17
2019-05-14T22:29:21.587Z,42.70
2019-05-14T22:31:51.242Z,42.27
2019-05-14T22:34:20.934Z,42.03
2019-05-14T22:36:50.612Z,42.33
2019-05-14T22:39:20.274Z,42.23
2019-05-14T22:41:50.654Z,42.50
2019-05-14T22:44:20.277Z,41.93
2019-05-14T22:46:49.868Z,42.40
2019-05-14T22:49:19.568Z,41.77
2019-05-14T22:51:49.473Z,41.63
2019-05-14T22:54:20.865Z,41.50
2019-05-14T22:56:50.590Z,41.57
2019-05-14T22:59:20.601Z,42.10
2019-05-14T23:01:50.400Z,41.73
2019-05-14T23:04:20.053Z,41.07
2019-05-14T23:06:50.957Z,41.50
2019-05-14T23:09:20.574Z,41.47
2019-05-14T23:11:50.263Z,41.50
2019-05-14T23:14:21.085Z,42.53
2019-05-14T23:16:52.116Z,41.37
2019-05-14T23:19:21.991Z,41.50
2019-05-14T23:21:51.742Z,41.23
2019-05-14T23:24:21.681Z,40.53
2019-05-14T23:26:51.295Z,41.37
2019-05-14T23:29:20.972Z,41.40
2019-05-14T23:31:50.670Z,40.87
2019-05-14T23:34:21.658Z,41.20
2019-05-14T23:36:51.329Z,41.33
2019-05-14T23:39:21.995Z,41.03
2019-05-14T23:41:52.098Z,41.10
2019-05-14T23:44:21.776Z,41.00
2019-05-14T23:46:51.446Z,40.87
2019-05-14T23:49:21.132Z,41.90
2019-05-14T23:51:50.784Z,41.57
2019-05-14T23:54:20.379Z,41.93
2019-05-14T23:56:50.015Z,42.17
2019-05-14T23:59:19.679Z,42.00
